Rechercher aéroport 
image banner adimage banner adimage banner ad
image banner ad

KPVF - Placerville

Situé à Placerville, United States

ICAO - PVF, IATA -

Données fournies par Airmate  

Information générale

Coordonnées: N38°43'27" W120°45'12"
Élévation : 2586 feet MSL.
Variation magnétique : 14° East
Voir autres Aéroports à California

Données opérationnelles

Special qualification required
Heure actuelle UTC:
Heure actuelle locale:
Météo
METAR: KPVF 260915Z AUTO 10006KT 10SM OVC090 18/04 A3005 RMK AO1
Voir NOTAMs / SUP AIP / TFR affectant cet aéroport [VIEW]
Fréquences de communication: [VIEW]

Pistes:

Identifiant RWYQFULongueur (ft)Largeur (ft)SurfaceLDA (ft)
0562°391476ASPH
23242°391476ASPH

Coordonnées de l'aéroport

Adresse: Placerville United States

Autres services d'aviation

Écoles de pilotage

Placerville Aviation

Placerville Aviation

Vue satellite de KPVF